createdAt,value
2022-11-17T00:01:25.806Z,2.47
2022-11-17T00:03:53.385Z,2.72
2022-11-17T00:06:23.317Z,2.50
2022-11-17T00:08:52.313Z,2.40
2022-11-17T00:11:19.299Z,2.08
2022-11-17T00:14:04.823Z,2.22
2022-11-17T00:16:31.780Z,1.95
2022-11-17T00:19:17.037Z,2.20
2022-11-17T00:21:43.992Z,2.00
2022-11-17T00:24:10.832Z,2.33
2022-11-17T00:26:57.736Z,2.35
2022-11-17T00:29:24.646Z,2.05
2022-11-17T00:32:10.197Z,2.03
2022-11-17T00:34:37.107Z,2.00
2022-11-17T00:37:04.856Z,1.88
2022-11-17T00:39:32.315Z,1.92
2022-11-17T00:41:59.414Z,2.08
2022-11-17T00:44:26.802Z,1.65
2022-11-17T00:46:53.683Z,1.88
2022-11-17T00:49:21.600Z,2.40
2022-11-17T00:51:48.389Z,2.10
2022-11-17T00:54:15.546Z,2.20
2022-11-17T00:56:42.447Z,2.22
2022-11-17T00:59:09.832Z,2.70
2022-11-17T01:01:38.112Z,1.95
2022-11-17T01:04:06.198Z,2.38
2022-11-17T01:06:48.609Z,2.92
2022-11-17T01:09:23.752Z,2.30
2022-11-17T01:11:52.990Z,2.60
2022-11-17T01:14:25.886Z,3.08
2022-11-17T01:16:53.913Z,2.85
2022-11-17T01:19:21.715Z,3.25
2022-11-17T01:21:49.051Z,3.40
2022-11-17T01:24:17.361Z,3.45
2022-11-17T01:26:45.544Z,3.75
2022-11-17T01:29:17.373Z,3.30
2022-11-17T01:31:45.950Z,3.97
2022-11-17T01:34:13.449Z,3.60
2022-11-17T01:37:01.453Z,3.55
2022-11-17T01:39:29.870Z,4.00
2022-11-17T01:41:57.380Z,3.88
2022-11-17T01:44:55.185Z,4.30
2022-11-17T01:47:53.995Z,4.38
2022-11-17T01:50:28.244Z,4.28
2022-11-17T01:52:59.622Z,4.63
2022-11-17T01:55:33.414Z,3.92
2022-11-17T01:58:06.570Z,4.07
2022-11-17T02:00:33.789Z,4.07
2022-11-17T02:03:01.679Z,4.88
2022-11-17T02:05:38.752Z,4.68
2022-11-17T02:08:06.839Z,4.95
2022-11-17T02:10:35.188Z,4.50
2022-11-17T02:13:02.648Z,5.45
2022-11-17T02:15:30.268Z,5.22
2022-11-17T02:17:58.735Z,6.35
2022-11-17T02:20:51.120Z,4.85
2022-11-17T02:23:34.571Z,4.28
2022-11-17T02:26:15.112Z,4.68
2022-11-17T02:29:00.155Z,5.05
2022-11-17T02:31:52.228Z,4.73
2022-11-17T02:34:53.896Z,4.90
2022-11-17T02:37:32.978Z,4.35
2022-11-17T02:40:07.036Z,5.00
2022-11-17T02:43:01.601Z,5.03
2022-11-17T02:45:42.110Z,6.47
2022-11-17T02:48:16.154Z,4.43
2022-11-17T02:50:47.748Z,5.57
2022-11-17T02:53:15.785Z,5.00
2022-11-17T02:55:52.503Z,5.13
2022-11-17T02:58:19.705Z,5.00
2022-11-17T03:01:24.312Z,4.80
2022-11-17T03:04:18.314Z,4.53
2022-11-17T03:07:27.571Z,4.93
2022-11-17T03:10:18.178Z,4.78
2022-11-17T03:13:13.353Z,4.93
2022-11-17T03:16:10.221Z,4.57
2022-11-17T03:19:02.362Z,4.65
2022-11-17T03:21:35.241Z,4.85
2022-11-17T03:24:28.871Z,5.07
2022-11-17T03:27:07.885Z,4.95
2022-11-17T03:29:37.871Z,4.97
2022-11-17T03:32:08.780Z,4.43
2022-11-17T03:34:52.027Z,4.47
2022-11-17T03:37:21.691Z,5.00
2022-11-17T03:39:54.030Z,4.35
2022-11-17T03:42:24.729Z,3.60
2022-11-17T03:44:59.832Z,4.38
2022-11-17T03:47:28.254Z,3.80
2022-11-17T03:50:01.604Z,3.42
2022-11-17T03:52:29.744Z,4.05
2022-11-17T03:54:57.242Z,3.15
2022-11-17T03:57:29.220Z,3.42
2022-11-17T04:00:01.130Z,2.58
2022-11-17T04:02:28.533Z,2.88
2022-11-17T04:05:07.368Z,2.35
2022-11-17T04:07:37.176Z,2.75
2022-11-17T04:10:05.485Z,2.17
2022-11-17T04:12:50.923Z,2.63
2022-11-17T04:15:36.356Z,2.22
2022-11-17T04:18:04.416Z,1.92
2022-11-17T04:20:36.007Z,2.13
2022-11-17T04:23:07.645Z,1.75
2022-11-17T04:25:58.147Z,1.40
2022-11-17T04:28:38.702Z,1.55
2022-11-17T04:31:14.698Z,1.60
2022-11-17T04:33:44.200Z,1.63
2022-11-17T04:36:13.073Z,1.70
2022-11-17T04:38:44.661Z,1.60
2022-11-17T04:41:31.602Z,2.05
2022-11-17T04:43:58.901Z,1.83
2022-11-17T04:46:26.521Z,1.58
2022-11-17T04:48:56.444Z,1.33
2022-11-17T04:51:23.927Z,2.35
2022-11-17T04:53:51.521Z,2.17
2022-11-17T04:56:23.000Z,2.00
2022-11-17T04:58:50.939Z,2.70
2022-11-17T05:01:18.865Z,2.47
2022-11-17T05:03:49.616Z,2.70
2022-11-17T05:06:22.078Z,2.67
2022-11-17T05:08:50.176Z,2.58
2022-11-17T05:11:36.751Z,2.47
2022-11-17T05:14:03.751Z,2.30
2022-11-17T05:16:49.112Z,2.22
2022-11-17T05:19:19.714Z,2.55
2022-11-17T05:21:46.764Z,2.35
2022-11-17T05:24:14.743Z,2.28
2022-11-17T05:26:43.449Z,2.85
2022-11-17T05:29:12.092Z,3.30
2022-11-17T05:31:39.290Z,3.00
2022-11-17T05:34:08.286Z,2.05
2022-11-17T05:36:36.563Z,2.08
2022-11-17T05:39:03.672Z,2.30
2022-11-17T05:41:30.764Z,3.08
2022-11-17T05:43:58.106Z,3.28
2022-11-17T05:46:26.238Z,1.90
2022-11-17T05:48:53.738Z,2.13
2022-11-17T05:51:22.749Z,2.63
2022-11-17T05:53:50.199Z,1.88
2022-11-17T05:56:38.249Z,2.10
2022-11-17T05:59:28.051Z,2.33
2022-11-17T06:02:03.543Z,1.70
2022-11-17T06:04:31.009Z,1.33
2022-11-17T06:06:59.443Z,1.95
2022-11-17T06:09:30.585Z,1.88
2022-11-17T06:12:01.058Z,1.35
2022-11-17T06:14:32.436Z,2.03
2022-11-17T06:17:07.289Z,1.70
2022-11-17T06:19:38.935Z,2.17
2022-11-17T06:22:13.778Z,1.95
2022-11-17T06:24:45.991Z,1.90
2022-11-17T06:27:14.154Z,1.73
2022-11-17T06:29:44.612Z,1.88
2022-11-17T06:32:14.286Z,1.88
2022-11-17T06:34:42.747Z,2.33
2022-11-17T06:37:11.302Z,1.88
2022-11-17T06:39:38.264Z,2.30
2022-11-17T06:42:05.170Z,1.55
2022-11-17T06:44:31.961Z,1.77
2022-11-17T06:46:59.094Z,1.92
2022-11-17T06:49:25.907Z,2.15
2022-11-17T06:51:52.790Z,1.70
2022-11-17T06:54:19.811Z,1.80
2022-11-17T06:56:46.879Z,1.60
2022-11-17T06:59:15.949Z,1.65
2022-11-17T07:01:43.473Z,1.60
2022-11-17T07:04:10.485Z,1.88
2022-11-17T07:06:37.678Z,1.55
2022-11-17T07:09:05.644Z,1.40
2022-11-17T07:11:36.260Z,1.50
2022-11-17T07:14:03.475Z,1.75
2022-11-17T07:16:31.224Z,1.50
2022-11-17T07:18:59.321Z,1.80
2022-11-17T07:21:26.457Z,1.20
2022-11-17T07:23:53.389Z,1.50
2022-11-17T07:26:20.566Z,1.55
2022-11-17T07:28:47.523Z,1.80
2022-11-17T07:31:14.460Z,1.80
2022-11-17T07:33:41.428Z,1.63
2022-11-17T07:36:10.314Z,1.20
2022-11-17T07:38:39.702Z,1.23
2022-11-17T07:41:08.841Z,1.52
2022-11-17T07:43:36.863Z,1.73
2022-11-17T07:46:08.656Z,1.92
2022-11-17T07:48:35.958Z,2.20
2022-11-17T07:51:04.332Z,1.65
2022-11-17T07:53:33.359Z,1.73
2022-11-17T07:56:04.915Z,1.92
2022-11-17T07:58:32.130Z,2.70
2022-11-17T08:00:59.316Z,2.55
2022-11-17T08:03:26.287Z,4.00
2022-11-17T08:05:53.456Z,4.50
2022-11-17T08:08:20.365Z,2.88
2022-11-17T08:10:47.285Z,3.90
2022-11-17T08:13:15.500Z,2.50
2022-11-17T08:15:42.411Z,2.97
2022-11-17T08:18:09.338Z,2.33
2022-11-17T08:20:36.271Z,3.25
2022-11-17T08:23:03.406Z,2.53
2022-11-17T08:25:30.253Z,2.53
2022-11-17T08:27:58.311Z,2.25
2022-11-17T08:30:26.172Z,2.58
2022-11-17T08:32:54.477Z,2.60
2022-11-17T08:35:24.232Z,1.98
2022-11-17T08:37:51.647Z,2.53
2022-11-17T08:40:18.894Z,2.63
2022-11-17T08:42:46.456Z,2.70
2022-11-17T08:45:14.185Z,2.00
2022-11-17T08:47:41.350Z,2.13
2022-11-17T08:50:09.205Z,2.60
2022-11-17T08:52:36.192Z,2.05
2022-11-17T08:55:05.723Z,2.20
2022-11-17T08:57:33.758Z,2.03
2022-11-17T09:00:01.653Z,1.85
2022-11-17T09:02:28.778Z,1.63
2022-11-17T09:04:55.870Z,1.70
2022-11-17T09:07:23.246Z,1.60
2022-11-17T09:09:50.229Z,2.60
2022-11-17T09:12:18.474Z,1.75
2022-11-17T09:14:45.299Z,1.90
2022-11-17T09:17:12.457Z,1.92
2022-11-17T09:19:39.316Z,1.58
2022-11-17T09:22:06.916Z,1.65
2022-11-17T09:24:33.930Z,1.70
2022-11-17T09:27:03.050Z,1.65
2022-11-17T09:29:30.962Z,1.65
2022-11-17T09:31:57.789Z,1.25
2022-11-17T09:34:24.830Z,1.58
2022-11-17T09:36:51.761Z,1.85
2022-11-17T09:39:18.594Z,1.33
2022-11-17T09:41:51.648Z,1.48
2022-11-17T09:44:24.663Z,1.58
2022-11-17T09:46:55.080Z,1.92
2022-11-17T09:49:58.264Z,1.67
2022-11-17T09:52:53.844Z,1.30
2022-11-17T09:55:38.184Z,1.40
2022-11-17T09:58:26.873Z,1.80
2022-11-17T10:00:54.438Z,1.40
2022-11-17T10:03:43.610Z,2.30
2022-11-17T10:06:24.383Z,1.48
2022-11-17T10:09:11.605Z,2.13
2022-11-17T10:11:41.514Z,1.70
2022-11-17T10:14:08.351Z,1.80
2022-11-17T10:16:37.576Z,2.13
2022-11-17T10:19:19.156Z,2.25
2022-11-17T10:21:52.637Z,2.10
2022-11-17T10:24:34.919Z,2.10
2022-11-17T10:27:04.417Z,1.70
2022-11-17T10:29:31.489Z,1.90
2022-11-17T10:31:59.747Z,1.75
2022-11-17T10:34:40.127Z,2.20
2022-11-17T10:37:13.750Z,2.42
2022-11-17T10:39:42.732Z,1.90
2022-11-17T10:42:27.683Z,2.17
2022-11-17T10:44:57.602Z,1.90
2022-11-17T10:47:45.227Z,1.60
2022-11-17T10:50:23.405Z,1.70
2022-11-17T10:52:52.767Z,1.90
2022-11-17T10:55:27.631Z,1.65
2022-11-17T10:58:08.967Z,1.73
2022-11-17T11:00:37.396Z,2.00
2022-11-17T11:03:22.718Z,1.33
2022-11-17T11:05:58.933Z,1.65
2022-11-17T11:08:36.885Z,1.42
2022-11-17T11:11:08.962Z,1.70
2022-11-17T11:13:50.001Z,1.95
2022-11-17T11:16:16.908Z,1.80
2022-11-17T11:18:43.696Z,1.45
2022-11-17T11:21:36.765Z,1.65
2022-11-17T11:24:10.462Z,1.75
2022-11-17T11:26:51.273Z,2.10
2022-11-17T11:29:30.214Z,1.30
2022-11-17T11:32:16.875Z,2.08
2022-11-17T11:34:57.189Z,1.95
2022-11-17T11:37:34.340Z,1.80
2022-11-17T11:40:16.619Z,1.50
2022-11-17T11:42:58.732Z,1.35
2022-11-17T11:45:44.547Z,1.30
2022-11-17T11:48:40.139Z,1.50
2022-11-17T11:51:24.814Z,2.15
2022-11-17T11:54:01.436Z,1.48
2022-11-17T11:56:40.377Z,1.60
2022-11-17T11:59:17.536Z,1.77
2022-11-17T12:02:02.769Z,1.50
2022-11-17T12:04:51.295Z,1.48
2022-11-17T12:07:36.316Z,1.80
2022-11-17T12:10:33.076Z,1.70
2022-11-17T12:13:00.379Z,2.17
2022-11-17T12:15:27.190Z,2.00
2022-11-17T12:18:18.306Z,1.85
2022-11-17T12:20:53.569Z,2.20
2022-11-17T12:23:32.483Z,1.85
2022-11-17T12:26:00.662Z,1.90
2022-11-17T12:28:40.321Z,1.83
2022-11-17T12:31:12.126Z,1.40
2022-11-17T12:33:54.296Z,1.30
2022-11-17T12:36:30.171Z,2.30
2022-11-17T12:39:00.008Z,1.80
2022-11-17T12:41:48.840Z,1.85
2022-11-17T12:44:37.553Z,2.40
2022-11-17T12:47:28.673Z,1.98
2022-11-17T12:50:26.365Z,1.85
2022-11-17T12:53:14.399Z,1.70
2022-11-17T12:55:55.171Z,1.80
2022-11-17T12:58:25.195Z,2.13
2022-11-17T13:01:03.810Z,2.03
2022-11-17T13:03:52.536Z,2.42
2022-11-17T13:06:34.891Z,2.13
2022-11-17T13:09:08.861Z,1.73
2022-11-17T13:11:35.869Z,1.73
2022-11-17T13:14:14.961Z,1.55
2022-11-17T13:16:46.649Z,1.83
2022-11-17T13:19:37.904Z,1.80
2022-11-17T13:22:13.734Z,1.75
2022-11-17T13:24:49.370Z,2.33
2022-11-17T13:27:28.207Z,2.28
2022-11-17T13:30:27.669Z,2.85
2022-11-17T13:32:56.293Z,2.22
2022-11-17T13:35:32.536Z,1.40
2022-11-17T13:38:11.683Z,2.00
2022-11-17T13:40:41.084Z,1.92
2022-11-17T13:43:13.598Z,1.77
2022-11-17T13:45:40.772Z,2.42
2022-11-17T13:48:27.575Z,1.80
2022-11-17T13:50:54.402Z,1.73
2022-11-17T13:53:26.531Z,1.70
2022-11-17T13:55:53.582Z,1.60
2022-11-17T13:58:27.193Z,1.60
2022-11-17T14:00:57.384Z,1.25
2022-11-17T14:03:43.760Z,1.73
2022-11-17T14:06:12.744Z,1.75
2022-11-17T14:08:41.913Z,1.70
2022-11-17T14:11:11.784Z,1.88
2022-11-17T14:13:54.084Z,1.55
2022-11-17T14:16:26.819Z,1.80
2022-11-17T14:19:29.451Z,2.00
2022-11-17T14:22:14.308Z,2.20
2022-11-17T14:24:45.293Z,1.63
2022-11-17T14:27:15.361Z,2.15
2022-11-17T14:29:42.273Z,1.75
2022-11-17T14:32:09.084Z,1.50
2022-11-17T14:34:35.943Z,1.40
2022-11-17T14:37:05.770Z,1.70
2022-11-17T14:39:35.719Z,1.95
2022-11-17T14:42:02.603Z,1.88
2022-11-17T14:44:29.485Z,2.10
2022-11-17T14:46:56.288Z,2.10
2022-11-17T14:49:23.174Z,2.47
2022-11-17T14:51:50.468Z,1.70
2022-11-17T14:54:17.326Z,1.80
2022-11-17T14:56:44.921Z,2.08
2022-11-17T14:59:11.840Z,2.00
2022-11-17T15:01:38.821Z,2.25
2022-11-17T15:04:21.113Z,1.83
2022-11-17T15:06:53.497Z,2.22
2022-11-17T15:09:20.650Z,2.33
2022-11-17T15:11:48.239Z,1.90
2022-11-17T15:14:15.692Z,2.05
2022-11-17T15:16:43.185Z,2.45
2022-11-17T15:19:10.029Z,2.63
2022-11-17T15:21:36.990Z,2.75
2022-11-17T15:24:05.005Z,2.45
2022-11-17T15:26:32.387Z,2.67
2022-11-17T15:28:59.376Z,2.67
2022-11-17T15:31:26.215Z,2.22
2022-11-17T15:33:53.220Z,2.47
2022-11-17T15:36:22.960Z,2.42
2022-11-17T15:38:50.020Z,2.00
2022-11-17T15:41:17.127Z,2.15
2022-11-17T15:43:45.037Z,1.65
2022-11-17T15:46:14.107Z,2.75
2022-11-17T15:48:45.122Z,2.10
2022-11-17T15:51:20.461Z,2.15
2022-11-17T15:53:48.896Z,2.50
2022-11-17T15:56:18.932Z,2.30
2022-11-17T15:58:47.101Z,1.95
2022-11-17T16:01:25.125Z,2.40
2022-11-17T16:03:53.115Z,2.60
2022-11-17T16:06:19.928Z,2.28
2022-11-17T16:08:46.850Z,2.40
2022-11-17T16:11:14.053Z,2.65
2022-11-17T16:13:40.972Z,2.30
2022-11-17T16:16:12.263Z,1.88
2022-11-17T16:18:39.555Z,2.22
2022-11-17T16:21:09.631Z,1.80
2022-11-17T16:23:41.688Z,2.20
2022-11-17T16:26:10.443Z,2.75
2022-11-17T16:28:38.310Z,2.88
2022-11-17T16:31:20.146Z,2.25
2022-11-17T16:33:58.366Z,1.98
2022-11-17T16:36:32.695Z,2.20
2022-11-17T16:39:04.235Z,2.50
2022-11-17T16:41:36.702Z,1.90
2022-11-17T16:44:11.747Z,2.67
2022-11-17T16:46:41.343Z,2.65
2022-11-17T16:49:11.624Z,6.47
2022-11-17T16:51:38.525Z,3.00
2022-11-17T16:54:06.849Z,3.25
2022-11-17T16:56:34.444Z,2.75
2022-11-17T16:59:01.336Z,3.40
2022-11-17T17:01:32.498Z,2.55
2022-11-17T17:04:01.950Z,3.72
2022-11-17T17:06:29.586Z,3.72
2022-11-17T17:08:59.003Z,3.60
2022-11-17T17:11:27.324Z,3.28
2022-11-17T17:13:54.318Z,3.28
2022-11-17T17:16:21.483Z,3.13
2022-11-17T17:18:53.714Z,2.85
2022-11-17T17:21:20.623Z,3.53
2022-11-17T17:23:47.509Z,3.80
2022-11-17T17:26:19.610Z,3.58
2022-11-17T17:28:48.471Z,3.22
2022-11-17T17:31:21.346Z,3.17
2022-11-17T17:33:50.697Z,2.70
2022-11-17T17:36:22.766Z,3.10
2022-11-17T17:38:55.551Z,4.97
2022-11-17T17:41:25.805Z,4.32
2022-11-17T17:44:01.594Z,3.22
2022-11-17T17:46:32.340Z,3.50
2022-11-17T17:49:02.543Z,3.83
2022-11-17T17:51:30.379Z,3.28
2022-11-17T17:54:00.900Z,3.45
2022-11-17T17:56:31.009Z,2.63
2022-11-17T17:58:58.710Z,3.55
2022-11-17T18:01:28.114Z,2.92
2022-11-17T18:04:01.263Z,3.30
2022-11-17T18:06:28.325Z,3.30
2022-11-17T18:08:55.208Z,3.58
2022-11-17T18:11:22.420Z,2.92
2022-11-17T18:13:50.921Z,3.10
2022-11-17T18:16:27.138Z,2.90
2022-11-17T18:18:59.354Z,2.58
2022-11-17T18:21:28.567Z,2.80
2022-11-17T18:23:56.821Z,3.55
2022-11-17T18:26:29.215Z,2.60
2022-11-17T18:28:57.028Z,2.92
2022-11-17T18:31:26.668Z,2.60
2022-11-17T18:33:58.207Z,2.50
2022-11-17T18:36:25.860Z,2.35
2022-11-17T18:38:52.889Z,2.47
2022-11-17T18:41:21.529Z,2.67
2022-11-17T18:43:48.781Z,2.63
2022-11-17T18:46:21.690Z,3.78
2022-11-17T18:48:51.718Z,2.60
2022-11-17T18:51:21.364Z,2.13
2022-11-17T18:53:49.651Z,2.65
2022-11-17T18:56:19.087Z,1.90
2022-11-17T18:58:47.040Z,1.95
2022-11-17T19:01:16.373Z,1.85
2022-11-17T19:03:45.178Z,2.10
2022-11-17T19:06:13.507Z,2.00
2022-11-17T19:08:40.704Z,2.40
2022-11-17T19:11:08.900Z,2.28
2022-11-17T19:13:37.900Z,1.90
2022-11-17T19:16:11.832Z,1.95
2022-11-17T19:18:39.480Z,2.22
2022-11-17T19:21:30.758Z,1.88
2022-11-17T19:23:59.301Z,2.33
2022-11-17T19:26:28.587Z,2.05
2022-11-17T19:28:57.552Z,2.13
2022-11-17T19:31:25.048Z,1.90
2022-11-17T19:33:53.074Z,2.20
2022-11-17T19:36:25.845Z,2.22
2022-11-17T19:38:53.991Z,2.38
2022-11-17T19:41:26.359Z,1.88
2022-11-17T19:43:58.220Z,2.25
2022-11-17T19:46:27.456Z,1.83
2022-11-17T19:48:55.493Z,2.55
2022-11-17T19:51:29.301Z,2.20
2022-11-17T19:53:58.420Z,1.90
2022-11-17T19:56:25.886Z,2.40
2022-11-17T19:58:53.843Z,1.80
2022-11-17T20:01:23.682Z,2.55
2022-11-17T20:03:51.072Z,2.47
2022-11-17T20:06:24.385Z,2.30
2022-11-17T20:08:51.642Z,2.30
2022-11-17T20:11:21.472Z,1.90
2022-11-17T20:13:49.067Z,2.00
2022-11-17T20:16:26.596Z,1.90
2022-11-17T20:18:55.960Z,2.03
2022-11-17T20:21:23.881Z,1.48
2022-11-17T20:23:50.850Z,1.98
2022-11-17T20:26:21.139Z,2.05
2022-11-17T20:28:48.594Z,1.85
2022-11-17T20:31:26.789Z,2.33
2022-11-17T20:34:00.415Z,1.75
2022-11-17T20:36:29.163Z,1.92
2022-11-17T20:39:01.013Z,1.80
2022-11-17T20:41:28.368Z,2.10
2022-11-17T20:43:56.812Z,2.10
2022-11-17T20:46:24.274Z,2.20
2022-11-17T20:48:51.965Z,1.88
2022-11-17T20:51:21.132Z,1.60
2022-11-17T20:53:48.302Z,2.35
2022-11-17T20:56:16.630Z,2.25
2022-11-17T20:58:43.988Z,3.10
2022-11-17T21:01:17.077Z,2.42
2022-11-17T21:03:45.572Z,2.15
2022-11-17T21:06:13.419Z,2.22
2022-11-17T21:08:42.188Z,2.00
2022-11-17T21:11:31.993Z,3.25
2022-11-17T21:13:59.673Z,2.67
2022-11-17T21:16:26.523Z,2.83
2022-11-17T21:18:53.527Z,2.40
2022-11-17T21:21:20.827Z,2.30
2022-11-17T21:23:47.765Z,2.50
2022-11-17T21:26:18.923Z,2.13
2022-11-17T21:28:46.757Z,2.22
2022-11-17T21:31:16.099Z,2.22
2022-11-17T21:33:44.301Z,2.28
2022-11-17T21:36:15.932Z,2.55
2022-11-17T21:38:44.997Z,2.65
2022-11-17T21:41:14.161Z,2.72
2022-11-17T21:43:42.910Z,2.38
2022-11-17T21:46:13.821Z,2.30
2022-11-17T21:48:41.446Z,2.53
2022-11-17T21:51:16.658Z,2.50
2022-11-17T21:53:44.178Z,2.30
2022-11-17T21:56:11.672Z,2.20
2022-11-17T21:58:39.018Z,2.50
2022-11-17T22:01:11.260Z,2.15
2022-11-17T22:03:39.312Z,2.47
2022-11-17T22:06:20.233Z,2.83
2022-11-17T22:08:47.821Z,2.42
2022-11-17T22:11:40.403Z,2.08
2022-11-17T22:14:09.072Z,2.08
2022-11-17T22:16:38.231Z,2.20
2022-11-17T22:19:06.004Z,2.33
2022-11-17T22:21:33.119Z,2.05
2022-11-17T22:24:00.486Z,2.47
2022-11-17T22:26:27.405Z,2.20
2022-11-17T22:28:55.755Z,2.40
2022-11-17T22:31:23.553Z,2.42
2022-11-17T22:33:51.418Z,2.60
2022-11-17T22:36:19.057Z,2.45
2022-11-17T22:38:49.061Z,2.28
2022-11-17T22:41:15.934Z,2.20
2022-11-17T22:43:42.887Z,2.40
2022-11-17T22:46:11.709Z,2.60
2022-11-17T22:48:38.869Z,2.58
2022-11-17T22:51:08.336Z,2.70
2022-11-17T22:53:35.265Z,2.70
2022-11-17T22:56:04.415Z,2.55
2022-11-17T22:58:31.903Z,2.60
2022-11-17T23:01:05.082Z,2.60
2022-11-17T23:03:32.549Z,2.67
2022-11-17T23:06:04.051Z,2.75
2022-11-17T23:08:31.723Z,2.97
2022-11-17T23:11:34.914Z,2.70
2022-11-17T23:13:51.217Z,2.60
2022-11-17T23:16:18.214Z,2.67
2022-11-17T23:18:45.113Z,2.70
2022-11-17T23:21:12.274Z,2.70
2022-11-17T23:23:40.631Z,2.97
2022-11-17T23:26:10.085Z,2.78
2022-11-17T23:28:38.333Z,2.55
2022-11-17T23:31:07.361Z,2.55
2022-11-17T23:33:37.902Z,2.90
2022-11-17T23:36:07.849Z,2.60
2022-11-17T23:38:34.929Z,2.42
2022-11-17T23:41:03.040Z,2.78
2022-11-17T23:43:30.272Z,2.35
2022-11-17T23:46:02.590Z,2.40
2022-11-17T23:48:29.453Z,2.45
2022-11-17T23:50:56.291Z,2.20
2022-11-17T23:53:23.416Z,2.40
2022-11-17T23:55:57.762Z,2.50
2022-11-17T23:58:24.679Z,2.33
